sensor_id;sensor_type;location;lat;lon;timestamp;P1;durP1;ratioP1;P2;durP2;ratioP2
15256;SDS011;7731;50.720;6.912;2024-01-30T00:00:22;13.13;;;8.63;;
15256;SDS011;7731;50.720;6.912;2024-01-30T00:02:52;11.00;;;8.53;;
15256;SDS011;7731;50.720;6.912;2024-01-30T00:05:25;10.37;;;9.07;;
15256;SDS011;7731;50.720;6.912;2024-01-30T00:07:55;10.90;;;9.17;;
15256;SDS011;7731;50.720;6.912;2024-01-30T00:10:26;11.00;;;9.63;;
15256;SDS011;7731;50.720;6.912;2024-01-30T00:12:56;12.50;;;9.10;;
15256;SDS011;7731;50.720;6.912;2024-01-30T00:15:29;13.07;;;8.70;;
15256;SDS011;7731;50.720;6.912;2024-01-30T00:18:02;9.63;;;8.40;;
15256;SDS011;7731;50.720;6.912;2024-01-30T00:20:37;12.80;;;8.90;;
15256;SDS011;7731;50.720;6.912;2024-01-30T00:23:07;12.30;;;9.37;;
15256;SDS011;7731;50.720;6.912;2024-01-30T00:25:37;10.10;;;8.70;;
15256;SDS011;7731;50.720;6.912;2024-01-30T00:28:08;9.63;;;8.43;;
15256;SDS011;7731;50.720;6.912;2024-01-30T00:30:50;11.57;;;8.30;;
15256;SDS011;7731;50.720;6.912;2024-01-30T00:33:20;9.93;;;8.80;;
15256;SDS011;7731;50.720;6.912;2024-01-30T00:35:54;10.37;;;8.53;;
15256;SDS011;7731;50.720;6.912;2024-01-30T00:38:24;9.87;;;8.37;;
15256;SDS011;7731;50.720;6.912;2024-01-30T00:40:54;12.17;;;9.07;;
15256;SDS011;7731;50.720;6.912;2024-01-30T00:43:31;10.13;;;7.80;;
15256;SDS011;7731;50.720;6.912;2024-01-30T00:46:01;11.33;;;8.70;;
15256;SDS011;7731;50.720;6.912;2024-01-30T00:48:37;9.83;;;8.30;;
15256;SDS011;7731;50.720;6.912;2024-01-30T00:51:10;9.73;;;8.20;;
15256;SDS011;7731;50.720;6.912;2024-01-30T00:53:41;10.70;;;8.70;;
15256;SDS011;7731;50.720;6.912;2024-01-30T00:56:11;11.50;;;9.13;;
15256;SDS011;7731;50.720;6.912;2024-01-30T00:58:44;12.63;;;8.73;;
15256;SDS011;7731;50.720;6.912;2024-01-30T01:01:15;10.40;;;8.77;;
15256;SDS011;7731;50.720;6.912;2024-01-30T01:03:48;11.10;;;9.27;;
15256;SDS011;7731;50.720;6.912;2024-01-30T01:06:21;10.57;;;8.80;;
15256;SDS011;7731;50.720;6.912;2024-01-30T01:08:51;13.27;;;9.10;;
15256;SDS011;7731;50.720;6.912;2024-01-30T01:11:22;11.00;;;8.17;;
15256;SDS011;7731;50.720;6.912;2024-01-30T01:14:01;12.20;;;8.33;;
15256;SDS011;7731;50.720;6.912;2024-01-30T01:16:31;13.13;;;8.53;;
15256;SDS011;7731;50.720;6.912;2024-01-30T01:19:03;10.80;;;8.90;;
15256;SDS011;7731;50.720;6.912;2024-01-30T01:21:37;12.20;;;9.20;;
15256;SDS011;7731;50.720;6.912;2024-01-30T01:24:10;9.53;;;8.53;;
15256;SDS011;7731;50.720;6.912;2024-01-30T01:26:40;10.50;;;8.53;;
15256;SDS011;7731;50.720;6.912;2024-01-30T01:29:13;9.90;;;7.70;;
15256;SDS011;7731;50.720;6.912;2024-01-30T01:31:43;10.97;;;8.40;;
15256;SDS011;7731;50.720;6.912;2024-01-30T01:34:14;10.97;;;8.73;;
15256;SDS011;7731;50.720;6.912;2024-01-30T01:36:48;10.90;;;8.40;;
15256;SDS011;7731;50.720;6.912;2024-01-30T01:39:22;8.70;;;7.50;;
15256;SDS011;7731;50.720;6.912;2024-01-30T01:41:52;9.83;;;7.87;;
15256;SDS011;7731;50.720;6.912;2024-01-30T01:44:22;11.23;;;8.53;;
15256;SDS011;7731;50.720;6.912;2024-01-30T01:46:53;10.47;;;8.37;;
15256;SDS011;7731;50.720;6.912;2024-01-30T01:49:27;10.63;;;8.17;;
15256;SDS011;7731;50.720;6.912;2024-01-30T01:52:13;8.37;;;7.50;;
15256;SDS011;7731;50.720;6.912;2024-01-30T01:54:46;10.63;;;8.50;;
15256;SDS011;7731;50.720;6.912;2024-01-30T01:57:17;10.60;;;8.23;;
15256;SDS011;7731;50.720;6.912;2024-01-30T01:59:51;10.73;;;7.60;;
15256;SDS011;7731;50.720;6.912;2024-01-30T02:02:21;11.20;;;7.73;;
15256;SDS011;7731;50.720;6.912;2024-01-30T02:04:57;9.27;;;7.63;;
15256;SDS011;7731;50.720;6.912;2024-01-30T02:07:46;8.73;;;7.30;;
15256;SDS011;7731;50.720;6.912;2024-01-30T02:10:20;9.20;;;7.57;;
15256;SDS011;7731;50.720;6.912;2024-01-30T02:12:52;8.33;;;7.37;;
15256;SDS011;7731;50.720;6.912;2024-01-30T02:15:23;8.70;;;7.40;;
15256;SDS011;7731;50.720;6.912;2024-01-30T02:17:53;10.60;;;7.73;;
15256;SDS011;7731;50.720;6.912;2024-01-30T02:20:24;8.33;;;7.53;;
15256;SDS011;7731;50.720;6.912;2024-01-30T02:23:01;8.23;;;7.00;;
15256;SDS011;7731;50.720;6.912;2024-01-30T02:25:38;8.40;;;7.07;;
15256;SDS011;7731;50.720;6.912;2024-01-30T02:28:11;8.50;;;7.50;;
15256;SDS011;7731;50.720;6.912;2024-01-30T02:30:42;8.30;;;7.07;;
15256;SDS011;7731;50.720;6.912;2024-01-30T02:33:21;10.23;;;7.27;;
15256;SDS011;7731;50.720;6.912;2024-01-30T02:35:51;8.43;;;6.80;;
15256;SDS011;7731;50.720;6.912;2024-01-30T02:38:27;11.20;;;7.63;;
15256;SDS011;7731;50.720;6.912;2024-01-30T02:40:57;9.10;;;7.67;;
15256;SDS011;7731;50.720;6.912;2024-01-30T02:43:28;9.87;;;7.50;;
15256;SDS011;7731;50.720;6.912;2024-01-30T02:45:58;8.13;;;7.33;;
15256;SDS011;7731;50.720;6.912;2024-01-30T02:48:28;8.93;;;7.60;;
15256;SDS011;7731;50.720;6.912;2024-01-30T02:50:59;8.37;;;6.30;;
15256;SDS011;7731;50.720;6.912;2024-01-30T02:53:32;11.33;;;6.60;;
15256;SDS011;7731;50.720;6.912;2024-01-30T02:56:09;9.05;;;6.90;;
15256;SDS011;7731;50.720;6.912;2024-01-30T02:58:43;10.33;;;7.27;;
15256;SDS011;7731;50.720;6.912;2024-01-30T03:01:22;7.47;;;6.50;;
15256;SDS011;7731;50.720;6.912;2024-01-30T03:03:53;8.40;;;6.53;;
15256;SDS011;7731;50.720;6.912;2024-01-30T03:06:26;8.60;;;7.30;;
15256;SDS011;7731;50.720;6.912;2024-01-30T03:09:02;9.93;;;7.03;;
15256;SDS011;7731;50.720;6.912;2024-01-30T03:11:33;9.87;;;7.30;;
15256;SDS011;7731;50.720;6.912;2024-01-30T03:14:04;8.20;;;6.63;;
15256;SDS011;7731;50.720;6.912;2024-01-30T03:16:34;9.03;;;6.97;;
15256;SDS011;7731;50.720;6.912;2024-01-30T03:19:05;8.50;;;7.13;;
15256;SDS011;7731;50.720;6.912;2024-01-30T03:21:37;9.30;;;7.13;;
15256;SDS011;7731;50.720;6.912;2024-01-30T03:24:15;9.43;;;7.37;;
15256;SDS011;7731;50.720;6.912;2024-01-30T03:26:45;8.87;;;7.53;;
15256;SDS011;7731;50.720;6.912;2024-01-30T03:29:18;9.60;;;7.90;;
15256;SDS011;7731;50.720;6.912;2024-01-30T03:31:48;8.33;;;7.37;;
15256;SDS011;7731;50.720;6.912;2024-01-30T03:34:19;9.67;;;7.93;;
15256;SDS011;7731;50.720;6.912;2024-01-30T03:36:49;8.43;;;7.27;;
15256;SDS011;7731;50.720;6.912;2024-01-30T03:39:27;9.20;;;7.87;;
15256;SDS011;7731;50.720;6.912;2024-01-30T03:42:01;10.57;;;8.03;;
15256;SDS011;7731;50.720;6.912;2024-01-30T03:44:31;9.60;;;8.57;;
15256;SDS011;7731;50.720;6.912;2024-01-30T03:47:01;10.20;;;7.93;;
15256;SDS011;7731;50.720;6.912;2024-01-30T03:49:32;11.27;;;7.57;;
15256;SDS011;7731;50.720;6.912;2024-01-30T03:52:03;10.60;;;8.53;;
15256;SDS011;7731;50.720;6.912;2024-01-30T03:54:36;9.30;;;7.20;;
15256;SDS011;7731;50.720;6.912;2024-01-30T03:57:06;9.60;;;7.93;;
15256;SDS011;7731;50.720;6.912;2024-01-30T03:59:42;11.17;;;8.30;;
15256;SDS011;7731;50.720;6.912;2024-01-30T04:02:16;11.33;;;7.70;;
15256;SDS011;7731;50.720;6.912;2024-01-30T04:04:52;9.07;;;8.17;;
15256;SDS011;7731;50.720;6.912;2024-01-30T04:07:25;11.03;;;8.43;;
15256;SDS011;7731;50.720;6.912;2024-01-30T04:09:58;9.30;;;8.10;;
15256;SDS011;7731;50.720;6.912;2024-01-30T04:12:33;11.10;;;8.03;;
15256;SDS011;7731;50.720;6.912;2024-01-30T04:15:04;10.30;;;7.80;;
15256;SDS011;7731;50.720;6.912;2024-01-30T04:17:35;9.73;;;7.80;;
15256;SDS011;7731;50.720;6.912;2024-01-30T04:20:06;12.70;;;8.57;;
15256;SDS011;7731;50.720;6.912;2024-01-30T04:22:45;10.43;;;8.50;;
15256;SDS011;7731;50.720;6.912;2024-01-30T04:25:27;11.57;;;8.80;;
15256;SDS011;7731;50.720;6.912;2024-01-30T04:27:58;10.93;;;8.30;;
15256;SDS011;7731;50.720;6.912;2024-01-30T04:30:28;8.50;;;7.10;;
15256;SDS011;7731;50.720;6.912;2024-01-30T04:32:58;10.93;;;7.63;;
15256;SDS011;7731;50.720;6.912;2024-01-30T04:35:32;9.53;;;7.73;;
15256;SDS011;7731;50.720;6.912;2024-01-30T04:38:05;9.80;;;8.17;;
15256;SDS011;7731;50.720;6.912;2024-01-30T04:40:43;9.50;;;7.70;;
15256;SDS011;7731;50.720;6.912;2024-01-30T04:43:17;9.20;;;8.30;;
15256;SDS011;7731;50.720;6.912;2024-01-30T04:45:50;8.67;;;7.80;;
15256;SDS011;7731;50.720;6.912;2024-01-30T04:48:20;9.70;;;8.70;;
15256;SDS011;7731;50.720;6.912;2024-01-30T04:50:58;11.77;;;8.40;;
15256;SDS011;7731;50.720;6.912;2024-01-30T04:53:29;10.33;;;8.80;;
15256;SDS011;7731;50.720;6.912;2024-01-30T04:56:07;10.03;;;8.23;;
15256;SDS011;7731;50.720;6.912;2024-01-30T04:58:37;8.40;;;7.60;;
15256;SDS011;7731;50.720;6.912;2024-01-30T05:01:14;9.63;;;7.50;;
15256;SDS011;7731;50.720;6.912;2024-01-30T05:03:54;9.90;;;8.00;;
15256;SDS011;7731;50.720;6.912;2024-01-30T05:06:25;9.57;;;8.47;;
15256;SDS011;7731;50.720;6.912;2024-01-30T05:08:55;9.70;;;7.63;;
15256;SDS011;7731;50.720;6.912;2024-01-30T05:11:34;9.90;;;8.87;;
15256;SDS011;7731;50.720;6.912;2024-01-30T05:14:07;11.20;;;9.00;;
15256;SDS011;7731;50.720;6.912;2024-01-30T05:16:38;9.63;;;8.17;;
15256;SDS011;7731;50.720;6.912;2024-01-30T05:19:15;8.80;;;7.90;;
15256;SDS011;7731;50.720;6.912;2024-01-30T05:21:47;10.50;;;8.57;;
15256;SDS011;7731;50.720;6.912;2024-01-30T05:24:23;9.33;;;8.30;;
15256;SDS011;7731;50.720;6.912;2024-01-30T05:26:58;10.77;;;8.50;;
15256;SDS011;7731;50.720;6.912;2024-01-30T05:29:31;10.73;;;7.73;;
15256;SDS011;7731;50.720;6.912;2024-01-30T05:32:01;11.20;;;8.67;;
15256;SDS011;7731;50.720;6.912;2024-01-30T05:34:32;12.20;;;9.13;;
15256;SDS011;7731;50.720;6.912;2024-01-30T05:37:03;13.23;;;8.47;;
15256;SDS011;7731;50.720;6.912;2024-01-30T05:39:34;11.37;;;8.50;;
15256;SDS011;7731;50.720;6.912;2024-01-30T05:42:07;12.53;;;8.57;;
15256;SDS011;7731;50.720;6.912;2024-01-30T05:44:37;9.83;;;8.27;;
15256;SDS011;7731;50.720;6.912;2024-01-30T05:47:13;12.70;;;8.83;;
15256;SDS011;7731;50.720;6.912;2024-01-30T05:49:46;10.70;;;8.50;;
15256;SDS011;7731;50.720;6.912;2024-01-30T05:52:19;9.00;;;8.10;;
15256;SDS011;7731;50.720;6.912;2024-01-30T05:54:49;11.50;;;9.40;;
15256;SDS011;7731;50.720;6.912;2024-01-30T05:57:24;10.20;;;8.60;;
15256;SDS011;7731;50.720;6.912;2024-01-30T05:59:55;9.37;;;8.13;;
15256;SDS011;7731;50.720;6.912;2024-01-30T06:02:25;9.43;;;8.50;;
15256;SDS011;7731;50.720;6.912;2024-01-30T06:04:55;10.70;;;8.87;;
15256;SDS011;7731;50.720;6.912;2024-01-30T06:07:26;10.30;;;8.30;;
15256;SDS011;7731;50.720;6.912;2024-01-30T06:10:01;11.57;;;8.90;;
15256;SDS011;7731;50.720;6.912;2024-01-30T06:12:36;9.83;;;8.83;;
15256;SDS011;7731;50.720;6.912;2024-01-30T06:15:07;10.67;;;8.60;;
15256;SDS011;7731;50.720;6.912;2024-01-30T06:17:39;10.77;;;9.07;;
15256;SDS011;7731;50.720;6.912;2024-01-30T06:20:10;11.33;;;9.60;;
15256;SDS011;7731;50.720;6.912;2024-01-30T06:22:49;9.80;;;8.80;;
15256;SDS011;7731;50.720;6.912;2024-01-30T06:25:19;10.07;;;8.73;;
15256;SDS011;7731;50.720;6.912;2024-01-30T06:27:54;9.17;;;8.23;;
15256;SDS011;7731;50.720;6.912;2024-01-30T06:30:27;11.47;;;8.87;;
15256;SDS011;7731;50.720;6.912;2024-01-30T06:32:57;9.83;;;8.80;;
15256;SDS011;7731;50.720;6.912;2024-01-30T06:35:28;10.37;;;8.97;;
15256;SDS011;7731;50.720;6.912;2024-01-30T06:37:58;11.63;;;9.63;;
15256;SDS011;7731;50.720;6.912;2024-01-30T06:40:28;11.57;;;9.40;;
15256;SDS011;7731;50.720;6.912;2024-01-30T06:43:01;10.83;;;8.20;;
15256;SDS011;7731;50.720;6.912;2024-01-30T06:45:32;10.33;;;8.63;;
15256;SDS011;7731;50.720;6.912;2024-01-30T06:48:10;12.50;;;9.07;;
15256;SDS011;7731;50.720;6.912;2024-01-30T06:50:40;11.90;;;8.70;;
15256;SDS011;7731;50.720;6.912;2024-01-30T06:53:10;9.90;;;8.87;;
15256;SDS011;7731;50.720;6.912;2024-01-30T06:55:41;11.00;;;8.87;;
15256;SDS011;7731;50.720;6.912;2024-01-30T06:58:14;10.00;;;8.53;;
15256;SDS011;7731;50.720;6.912;2024-01-30T07:00:47;13.83;;;8.90;;
15256;SDS011;7731;50.720;6.912;2024-01-30T07:03:17;10.90;;;8.30;;
15256;SDS011;7731;50.720;6.912;2024-01-30T07:05:48;10.13;;;8.27;;
15256;SDS011;7731;50.720;6.912;2024-01-30T07:08:18;10.80;;;8.33;;
15256;SDS011;7731;50.720;6.912;2024-01-30T07:10:49;9.30;;;8.00;;
15256;SDS011;7731;50.720;6.912;2024-01-30T07:13:31;12.60;;;7.87;;
15256;SDS011;7731;50.720;6.912;2024-01-30T07:16:03;11.03;;;8.60;;
15256;SDS011;7731;50.720;6.912;2024-01-30T07:18:34;9.53;;;8.33;;
15256;SDS011;7731;50.720;6.912;2024-01-30T07:21:12;9.60;;;8.37;;
15256;SDS011;7731;50.720;6.912;2024-01-30T07:23:42;9.87;;;8.60;;
15256;SDS011;7731;50.720;6.912;2024-01-30T07:26:15;10.73;;;8.07;;
15256;SDS011;7731;50.720;6.912;2024-01-30T07:28:48;10.60;;;9.00;;
15256;SDS011;7731;50.720;6.912;2024-01-30T07:31:24;11.37;;;8.33;;
15256;SDS011;7731;50.720;6.912;2024-01-30T07:33:59;10.47;;;8.97;;
15256;SDS011;7731;50.720;6.912;2024-01-30T07:36:30;11.67;;;8.60;;
15256;SDS011;7731;50.720;6.912;2024-01-30T07:39:00;10.80;;;8.37;;
15256;SDS011;7731;50.720;6.912;2024-01-30T07:41:30;11.13;;;8.67;;
15256;SDS011;7731;50.720;6.912;2024-01-30T07:44:06;10.67;;;8.20;;
15256;SDS011;7731;50.720;6.912;2024-01-30T07:46:36;9.70;;;8.47;;
15256;SDS011;7731;50.720;6.912;2024-01-30T07:49:07;11.37;;;9.03;;
15256;SDS011;7731;50.720;6.912;2024-01-30T07:51:37;9.83;;;7.47;;
15256;SDS011;7731;50.720;6.912;2024-01-30T07:54:08;10.23;;;7.30;;
15256;SDS011;7731;50.720;6.912;2024-01-30T07:56:41;9.70;;;7.10;;
15256;SDS011;7731;50.720;6.912;2024-01-30T07:59:13;9.73;;;6.90;;
15256;SDS011;7731;50.720;6.912;2024-01-30T08:04:31;10.13;;;7.25;;
15256;SDS011;7731;50.720;6.912;2024-01-30T08:07:02;10.23;;;7.53;;
15256;SDS011;7731;50.720;6.912;2024-01-30T08:09:33;10.87;;;6.87;;
15256;SDS011;7731;50.720;6.912;2024-01-30T08:12:03;9.60;;;7.15;;
15256;SDS011;7731;50.720;6.912;2024-01-30T08:14:37;9.63;;;7.20;;
15256;SDS011;7731;50.720;6.912;2024-01-30T08:17:11;9.70;;;7.13;;
15256;SDS011;7731;50.720;6.912;2024-01-30T08:19:43;8.38;;;7.05;;
15256;SDS011;7731;50.720;6.912;2024-01-30T08:22:14;11.38;;;6.60;;
15256;SDS011;7731;50.720;6.912;2024-01-30T08:24:44;8.52;;;7.00;;
15256;SDS011;7731;50.720;6.912;2024-01-30T08:27:14;10.32;;;7.13;;
15256;SDS011;7731;50.720;6.912;2024-01-30T08:29:48;14.43;;;9.43;;
15256;SDS011;7731;50.720;6.912;2024-01-30T08:32:18;18.90;;;10.80;;
15256;SDS011;7731;50.720;6.912;2024-01-30T08:34:49;15.73;;;9.00;;
15256;SDS011;7731;50.720;6.912;2024-01-30T08:37:22;12.85;;;8.90;;
15256;SDS011;7731;50.720;6.912;2024-01-30T08:39:55;12.88;;;8.82;;
15256;SDS011;7731;50.720;6.912;2024-01-30T08:42:26;10.75;;;8.50;;
15256;SDS011;7731;50.720;6.912;2024-01-30T08:44:59;17.42;;;12.32;;
15256;SDS011;7731;50.720;6.912;2024-01-30T08:47:31;16.10;;;11.73;;
15256;SDS011;7731;50.720;6.912;2024-01-30T08:50:02;17.05;;;12.10;;
15256;SDS011;7731;50.720;6.912;2024-01-30T08:52:37;12.23;;;9.50;;
15256;SDS011;7731;50.720;6.912;2024-01-30T08:55:07;12.00;;;8.88;;
15256;SDS011;7731;50.720;6.912;2024-01-30T08:57:50;8.90;;;7.35;;
15256;SDS011;7731;50.720;6.912;2024-01-30T09:00:23;9.90;;;6.40;;
15256;SDS011;7731;50.720;6.912;2024-01-30T09:02:56;7.90;;;5.72;;
15256;SDS011;7731;50.720;6.912;2024-01-30T09:05:27;10.77;;;6.30;;
15256;SDS011;7731;50.720;6.912;2024-01-30T09:07:57;8.38;;;5.53;;
15256;SDS011;7731;50.720;6.912;2024-01-30T09:10:28;9.52;;;6.05;;
15256;SDS011;7731;50.720;6.912;2024-01-30T09:12:58;6.90;;;6.00;;
15256;SDS011;7731;50.720;6.912;2024-01-30T09:15:31;10.30;;;8.68;;
15256;SDS011;7731;50.720;6.912;2024-01-30T09:18:02;12.70;;;10.82;;
15256;SDS011;7731;50.720;6.912;2024-01-30T09:20:35;10.93;;;7.45;;
15256;SDS011;7731;50.720;6.912;2024-01-30T09:23:05;9.85;;;6.65;;
15256;SDS011;7731;50.720;6.912;2024-01-30T09:25:35;8.05;;;6.50;;
15256;SDS011;7731;50.720;6.912;2024-01-30T09:28:09;9.02;;;6.32;;
15256;SDS011;7731;50.720;6.912;2024-01-30T09:30:42;9.52;;;6.85;;
15256;SDS011;7731;50.720;6.912;2024-01-30T09:33:12;6.10;;;5.13;;
15256;SDS011;7731;50.720;6.912;2024-01-30T09:35:49;8.82;;;5.50;;
15256;SDS011;7731;50.720;6.912;2024-01-30T09:38:22;7.97;;;5.18;;
15256;SDS011;7731;50.720;6.912;2024-01-30T09:40:53;7.18;;;5.30;;
15256;SDS011;7731;50.720;6.912;2024-01-30T09:43:32;7.60;;;5.32;;
15256;SDS011;7731;50.720;6.912;2024-01-30T09:46:07;10.43;;;5.57;;
15256;SDS011;7731;50.720;6.912;2024-01-30T09:48:44;8.98;;;6.00;;
15256;SDS011;7731;50.720;6.912;2024-01-30T09:51:17;8.00;;;5.95;;
15256;SDS011;7731;50.720;6.912;2024-01-30T09:53:51;9.48;;;5.75;;
15256;SDS011;7731;50.720;6.912;2024-01-30T09:56:24;10.88;;;6.72;;
15256;SDS011;7731;50.720;6.912;2024-01-30T09:58:54;9.98;;;6.43;;
15256;SDS011;7731;50.720;6.912;2024-01-30T10:01:36;7.40;;;4.97;;
15256;SDS011;7731;50.720;6.912;2024-01-30T10:04:08;10.43;;;6.10;;
15256;SDS011;7731;50.720;6.912;2024-01-30T10:06:39;7.85;;;5.65;;
15256;SDS011;7731;50.720;6.912;2024-01-30T10:09:11;7.00;;;6.07;;
15256;SDS011;7731;50.720;6.912;2024-01-30T10:11:42;10.10;;;5.10;;
15256;SDS011;7731;50.720;6.912;2024-01-30T10:14:15;9.80;;;5.18;;
15256;SDS011;7731;50.720;6.912;2024-01-30T10:16:50;9.00;;;5.28;;
15256;SDS011;7731;50.720;6.912;2024-01-30T10:19:21;8.45;;;6.10;;
15256;SDS011;7731;50.720;6.912;2024-01-30T10:21:51;8.95;;;5.13;;
15256;SDS011;7731;50.720;6.912;2024-01-30T10:24:24;9.23;;;5.72;;
15256;SDS011;7731;50.720;6.912;2024-01-30T10:26:55;8.02;;;5.97;;
15256;SDS011;7731;50.720;6.912;2024-01-30T10:29:26;8.43;;;5.88;;
15256;SDS011;7731;50.720;6.912;2024-01-30T10:32:04;7.68;;;5.30;;
15256;SDS011;7731;50.720;6.912;2024-01-30T10:34:35;10.27;;;5.55;;
15256;SDS011;7731;50.720;6.912;2024-01-30T10:37:07;8.07;;;5.47;;
15256;SDS011;7731;50.720;6.912;2024-01-30T10:39:43;7.20;;;5.25;;
15256;SDS011;7731;50.720;6.912;2024-01-30T10:42:18;11.77;;;6.25;;
15256;SDS011;7731;50.720;6.912;2024-01-30T10:44:56;9.02;;;5.70;;
15256;SDS011;7731;50.720;6.912;2024-01-30T10:47:39;7.95;;;5.03;;
15256;SDS011;7731;50.720;6.912;2024-01-30T10:50:12;8.77;;;5.63;;
15256;SDS011;7731;50.720;6.912;2024-01-30T10:52:50;8.25;;;5.60;;
15256;SDS011;7731;50.720;6.912;2024-01-30T10:55:24;7.78;;;5.38;;
15256;SDS011;7731;50.720;6.912;2024-01-30T10:57:58;11.55;;;5.90;;
15256;SDS011;7731;50.720;6.912;2024-01-30T11:00:29;8.60;;;5.15;;
15256;SDS011;7731;50.720;6.912;2024-01-30T11:03:12;7.00;;;5.03;;
15256;SDS011;7731;50.720;6.912;2024-01-30T11:05:48;8.80;;;5.40;;
15256;SDS011;7731;50.720;6.912;2024-01-30T11:08:22;6.93;;;4.70;;
15256;SDS011;7731;50.720;6.912;2024-01-30T11:10:55;8.10;;;4.95;;
15256;SDS011;7731;50.720;6.912;2024-01-30T11:13:27;6.88;;;4.97;;
15256;SDS011;7731;50.720;6.912;2024-01-30T11:16:01;9.23;;;5.10;;
15256;SDS011;7731;50.720;6.912;2024-01-30T11:18:35;8.10;;;4.80;;
15256;SDS011;7731;50.720;6.912;2024-01-30T11:21:06;12.55;;;5.90;;
15256;SDS011;7731;50.720;6.912;2024-01-30T11:23:36;12.02;;;5.60;;
15256;SDS011;7731;50.720;6.912;2024-01-30T11:26:10;8.43;;;5.88;;
15256;SDS011;7731;50.720;6.912;2024-01-30T11:28:40;8.45;;;5.85;;
15256;SDS011;7731;50.720;6.912;2024-01-30T11:31:28;8.27;;;5.47;;
15256;SDS011;7731;50.720;6.912;2024-01-30T11:34:16;11.05;;;5.55;;
15256;SDS011;7731;50.720;6.912;2024-01-30T11:36:52;6.72;;;5.63;;
15256;SDS011;7731;50.720;6.912;2024-01-30T11:39:28;6.72;;;5.03;;
15256;SDS011;7731;50.720;6.912;2024-01-30T11:41:59;7.63;;;5.15;;
15256;SDS011;7731;50.720;6.912;2024-01-30T11:44:31;6.97;;;5.38;;
15256;SDS011;7731;50.720;6.912;2024-01-30T11:47:01;7.80;;;5.47;;
15256;SDS011;7731;50.720;6.912;2024-01-30T11:49:35;9.32;;;5.30;;
15256;SDS011;7731;50.720;6.912;2024-01-30T11:52:06;7.20;;;4.80;;
15256;SDS011;7731;50.720;6.912;2024-01-30T11:54:42;6.53;;;5.22;;
15256;SDS011;7731;50.720;6.912;2024-01-30T11:57:13;6.70;;;4.93;;
15256;SDS011;7731;50.720;6.912;2024-01-30T11:59:43;11.13;;;5.47;;
15256;SDS011;7731;50.720;6.912;2024-01-30T12:02:16;8.50;;;4.88;;
15256;SDS011;7731;50.720;6.912;2024-01-30T12:04:49;10.32;;;5.53;;
15256;SDS011;7731;50.720;6.912;2024-01-30T12:07:20;8.48;;;5.65;;
15256;SDS011;7731;50.720;6.912;2024-01-30T12:09:56;8.63;;;6.07;;
15256;SDS011;7731;50.720;6.912;2024-01-30T12:12:26;9.63;;;6.32;;
15256;SDS011;7731;50.720;6.912;2024-01-30T12:15:01;12.80;;;7.03;;
15256;SDS011;7731;50.720;6.912;2024-01-30T12:17:39;13.60;;;7.80;;
15256;SDS011;7731;50.720;6.912;2024-01-30T12:20:13;13.73;;;7.78;;
15256;SDS011;7731;50.720;6.912;2024-01-30T12:22:49;10.15;;;5.53;;
15256;SDS011;7731;50.720;6.912;2024-01-30T12:25:21;6.20;;;4.82;;
15256;SDS011;7731;50.720;6.912;2024-01-30T12:27:52;6.78;;;4.82;;
15256;SDS011;7731;50.720;6.912;2024-01-30T12:30:22;6.75;;;4.93;;
15256;SDS011;7731;50.720;6.912;2024-01-30T12:32:55;7.47;;;5.22;;
15256;SDS011;7731;50.720;6.912;2024-01-30T12:35:28;7.53;;;5.47;;
15256;SDS011;7731;50.720;6.912;2024-01-30T12:38:05;8.20;;;5.15;;
15256;SDS011;7731;50.720;6.912;2024-01-30T12:40:36;8.55;;;5.50;;
15256;SDS011;7731;50.720;6.912;2024-01-30T12:43:10;6.82;;;5.18;;
15256;SDS011;7731;50.720;6.912;2024-01-30T12:46:00;9.45;;;6.40;;
15256;SDS011;7731;50.720;6.912;2024-01-30T12:48:30;8.10;;;5.88;;
15256;SDS011;7731;50.720;6.912;2024-01-30T12:51:06;8.23;;;5.82;;
15256;SDS011;7731;50.720;6.912;2024-01-30T12:53:37;8.63;;;6.57;;
15256;SDS011;7731;50.720;6.912;2024-01-30T12:56:07;9.60;;;5.97;;
15256;SDS011;7731;50.720;6.912;2024-01-30T12:58:38;9.50;;;5.60;;
15256;SDS011;7731;50.720;6.912;2024-01-30T13:01:19;8.40;;;5.70;;
15256;SDS011;7731;50.720;6.912;2024-01-30T13:06:47;8.52;;;5.35;;
15256;SDS011;7731;50.720;6.912;2024-01-30T13:09:18;5.93;;;4.80;;
15256;SDS011;7731;50.720;6.912;2024-01-30T13:11:48;9.60;;;5.50;;
15256;SDS011;7731;50.720;6.912;2024-01-30T13:14:19;10.65;;;5.57;;
15256;SDS011;7731;50.720;6.912;2024-01-30T13:16:52;9.13;;;5.60;;
15256;SDS011;7731;50.720;6.912;2024-01-30T13:19:25;7.07;;;4.65;;
15256;SDS011;7731;50.720;6.912;2024-01-30T13:21:58;7.90;;;5.43;;
15256;SDS011;7731;50.720;6.912;2024-01-30T13:24:31;9.75;;;6.32;;
15256;SDS011;7731;50.720;6.912;2024-01-30T13:27:02;8.90;;;5.72;;
15256;SDS011;7731;50.720;6.912;2024-01-30T13:29:33;8.55;;;5.82;;
15256;SDS011;7731;50.720;6.912;2024-01-30T13:32:04;7.95;;;5.60;;
15256;SDS011;7731;50.720;6.912;2024-01-30T13:34:35;10.95;;;6.03;;
15256;SDS011;7731;50.720;6.912;2024-01-30T13:37:09;7.38;;;5.65;;
15256;SDS011;7731;50.720;6.912;2024-01-30T13:39:40;8.02;;;5.47;;
15256;SDS011;7731;50.720;6.912;2024-01-30T13:42:10;8.80;;;5.53;;
15256;SDS011;7731;50.720;6.912;2024-01-30T13:44:46;10.35;;;5.45;;
15256;SDS011;7731;50.720;6.912;2024-01-30T13:47:19;6.78;;;5.72;;
15256;SDS011;7731;50.720;6.912;2024-01-30T13:49:57;8.50;;;5.95;;
15256;SDS011;7731;50.720;6.912;2024-01-30T13:52:32;8.60;;;5.65;;
15256;SDS011;7731;50.720;6.912;2024-01-30T13:55:13;7.22;;;5.43;;
15256;SDS011;7731;50.720;6.912;2024-01-30T13:57:46;9.32;;;5.55;;
15256;SDS011;7731;50.720;6.912;2024-01-30T14:00:22;8.52;;;4.90;;
15256;SDS011;7731;50.720;6.912;2024-01-30T14:02:52;7.85;;;5.38;;
15256;SDS011;7731;50.720;6.912;2024-01-30T14:05:25;12.13;;;5.95;;
15256;SDS011;7731;50.720;6.912;2024-01-30T14:08:05;10.38;;;5.55;;
15256;SDS011;7731;50.720;6.912;2024-01-30T14:10:36;10.52;;;5.32;;
15256;SDS011;7731;50.720;6.912;2024-01-30T14:13:10;5.82;;;4.97;;
15256;SDS011;7731;50.720;6.912;2024-01-30T14:15:46;6.40;;;5.40;;
15256;SDS011;7731;50.720;6.912;2024-01-30T14:18:16;8.15;;;4.85;;
15256;SDS011;7731;50.720;6.912;2024-01-30T14:20:47;8.30;;;4.95;;
15256;SDS011;7731;50.720;6.912;2024-01-30T14:23:23;6.15;;;4.93;;
15256;SDS011;7731;50.720;6.912;2024-01-30T14:26:01;8.52;;;6.20;;
15256;SDS011;7731;50.720;6.912;2024-01-30T14:28:32;11.25;;;5.43;;
15256;SDS011;7731;50.720;6.912;2024-01-30T14:31:03;8.13;;;5.00;;
15256;SDS011;7731;50.720;6.912;2024-01-30T14:33:33;8.57;;;5.30;;
15256;SDS011;7731;50.720;6.912;2024-01-30T14:36:15;6.93;;;5.30;;
15256;SDS011;7731;50.720;6.912;2024-01-30T14:38:49;6.22;;;4.78;;
15256;SDS011;7731;50.720;6.912;2024-01-30T14:41:22;7.05;;;5.18;;
15256;SDS011;7731;50.720;6.912;2024-01-30T14:43:53;7.70;;;5.15;;
15256;SDS011;7731;50.720;6.912;2024-01-30T14:46:25;6.78;;;5.15;;
15256;SDS011;7731;50.720;6.912;2024-01-30T14:48:59;7.95;;;5.32;;
15256;SDS011;7731;50.720;6.912;2024-01-30T14:51:33;9.10;;;5.25;;
15256;SDS011;7731;50.720;6.912;2024-01-30T14:54:08;7.30;;;5.32;;
15256;SDS011;7731;50.720;6.912;2024-01-30T14:56:39;8.55;;;5.15;;
15256;SDS011;7731;50.720;6.912;2024-01-30T14:59:09;6.45;;;5.00;;
15256;SDS011;7731;50.720;6.912;2024-01-30T15:01:40;7.10;;;5.40;;
15256;SDS011;7731;50.720;6.912;2024-01-30T15:04:12;9.35;;;4.93;;
15256;SDS011;7731;50.720;6.912;2024-01-30T15:06:42;8.43;;;5.30;;
15256;SDS011;7731;50.720;6.912;2024-01-30T15:09:17;9.55;;;6.13;;
15256;SDS011;7731;50.720;6.912;2024-01-30T15:11:52;8.50;;;5.40;;
15256;SDS011;7731;50.720;6.912;2024-01-30T15:14:22;6.25;;;5.30;;
15256;SDS011;7731;50.720;6.912;2024-01-30T15:16:53;7.38;;;5.25;;
15256;SDS011;7731;50.720;6.912;2024-01-30T15:19:24;8.88;;;5.45;;
15256;SDS011;7731;50.720;6.912;2024-01-30T15:21:54;6.47;;;5.25;;
15256;SDS011;7731;50.720;6.912;2024-01-30T15:24:27;10.95;;;6.20;;
15256;SDS011;7731;50.720;6.912;2024-01-30T15:26:58;7.18;;;5.80;;
15256;SDS011;7731;50.720;6.912;2024-01-30T15:29:28;10.70;;;5.68;;
15256;SDS011;7731;50.720;6.912;2024-01-30T15:31:59;7.82;;;5.30;;
15256;SDS011;7731;50.720;6.912;2024-01-30T15:34:39;7.97;;;5.53;;